createdAt,value
2017-07-22T00:00:47.653Z,98655.52
2017-07-22T00:03:15.182Z,98656.78
2017-07-22T00:05:42.834Z,98663.92
2017-07-22T00:08:10.343Z,98660.41
2017-07-22T00:10:37.900Z,98662.88
2017-07-22T00:13:05.417Z,98660.86
2017-07-22T00:15:32.968Z,98661.66
2017-07-22T00:18:00.481Z,98669.03
2017-07-22T00:20:28.090Z,98669.34
2017-07-22T00:22:55.767Z,98680.28
2017-07-22T00:25:23.312Z,98673.25
2017-07-22T00:27:50.839Z,98666.63
2017-07-22T00:30:18.434Z,98665.02
2017-07-22T00:32:45.950Z,98665.02
2017-07-22T00:35:13.504Z,98658.86
2017-07-22T00:37:41.039Z,98662.63
2017-07-22T00:40:08.672Z,98663.67
2017-07-22T00:42:36.188Z,98663.97
2017-07-22T00:45:03.697Z,98667.33
2017-07-22T00:47:31.305Z,98660.83
2017-07-22T00:49:58.823Z,98660.97
2017-07-22T00:52:26.361Z,98665.20
2017-07-22T00:54:53.872Z,98669.58
2017-07-22T00:57:21.488Z,98665.03
2017-07-22T00:59:49.002Z,98669.26
2017-07-22T01:02:16.555Z,98653.92
2017-07-22T01:04:44.073Z,98656.88
2017-07-22T01:07:11.619Z,98655.05
2017-07-22T01:09:39.142Z,98661.51
2017-07-22T01:12:06.694Z,98658.95
2017-07-22T01:14:34.209Z,98651.91
2017-07-22T01:17:01.755Z,98643.22
2017-07-22T01:19:29.291Z,98642.31
2017-07-22T01:21:56.843Z,98644.33
2017-07-22T01:24:24.354Z,98655.16
2017-07-22T01:26:51.900Z,98659.94
2017-07-22T01:29:19.417Z,98671.38
2017-07-22T01:31:46.987Z,98678.11
2017-07-22T01:34:14.505Z,98673.64
2017-07-22T01:36:42.032Z,98675.25
2017-07-22T01:39:09.586Z,98677.84
2017-07-22T01:41:37.115Z,98671.22
2017-07-22T01:44:04.664Z,98669.13
2017-07-22T01:46:32.181Z,98669.23
2017-07-22T01:48:59.734Z,98673.56
2017-07-22T01:51:27.273Z,98671.25
2017-07-22T01:53:54.821Z,98678.44
2017-07-22T01:56:22.371Z,98681.55
2017-07-22T01:58:49.918Z,98679.06
2017-07-22T02:01:17.434Z,98688.67
2017-07-22T02:03:45.003Z,98689.33
2017-07-22T02:06:12.534Z,98693.69
2017-07-22T02:08:40.106Z,98702.90
2017-07-22T02:11:07.624Z,98701.69
2017-07-22T02:13:35.169Z,98689.00
2017-07-22T02:16:02.681Z,98679.58
2017-07-22T02:18:30.223Z,98679.71
2017-07-22T02:20:57.741Z,98677.34
2017-07-22T02:23:25.283Z,98676.60
2017-07-22T02:25:52.850Z,98671.73
2017-07-22T02:28:20.377Z,98670.30
2017-07-22T02:30:47.937Z,98661.75
2017-07-22T02:33:15.453Z,98663.59
2017-07-22T02:35:42.989Z,98661.53
2017-07-22T02:38:10.500Z,98660.91
2017-07-22T02:40:38.048Z,98655.28
2017-07-22T02:43:05.573Z,98660.43
2017-07-22T02:45:33.117Z,98659.59
2017-07-22T02:48:00.629Z,98656.73
2017-07-22T02:50:28.180Z,98656.47
2017-07-22T02:52:55.697Z,98657.58
2017-07-22T02:55:23.355Z,98658.60
2017-07-22T02:57:50.871Z,98654.23
2017-07-22T03:00:18.413Z,98656.25
2017-07-22T03:02:45.930Z,98659.30
2017-07-22T03:05:13.477Z,98655.33
2017-07-22T03:07:41.052Z,98653.10
2017-07-22T03:10:08.605Z,98659.34
2017-07-22T03:12:36.131Z,98659.80
2017-07-22T03:15:03.655Z,98657.22
2017-07-22T03:17:31.202Z,98658.66
2017-07-22T03:19:58.727Z,98658.66
2017-07-22T03:22:26.284Z,98655.94
2017-07-22T03:24:53.825Z,98668.53
2017-07-22T03:27:21.398Z,98671.02
2017-07-22T03:29:48.905Z,98682.69
2017-07-22T03:32:16.510Z,98681.47
2017-07-22T03:34:44.030Z,98684.77
2017-07-22T03:37:11.572Z,98683.01
2017-07-22T03:39:39.098Z,98687.08
2017-07-22T03:42:06.657Z,98688.36
2017-07-22T03:44:34.176Z,98693.61
2017-07-22T03:47:01.762Z,98689.39
2017-07-22T03:49:29.281Z,98693.39
2017-07-22T03:51:56.834Z,98699.73
2017-07-22T03:54:24.351Z,98697.28
2017-07-22T03:56:51.911Z,98703.84
2017-07-22T03:59:19.421Z,98706.23
2017-07-22T04:01:46.993Z,98705.34
2017-07-22T04:04:14.513Z,98711.84
2017-07-22T04:06:42.030Z,98721.64
2017-07-22T04:09:09.589Z,98716.83
2017-07-22T04:11:37.114Z,98729.38
2017-07-22T04:14:04.669Z,98721.16
2017-07-22T04:16:32.187Z,98724.38
2017-07-22T04:18:59.735Z,98723.25
2017-07-22T04:21:27.270Z,98736.92
2017-07-22T04:23:54.817Z,98728.68
2017-07-22T04:26:22.367Z,98725.48
2017-07-22T04:28:49.921Z,98723.03
2017-07-22T04:31:17.439Z,98732.61
2017-07-22T04:33:44.987Z,98727.58
2017-07-22T04:36:12.505Z,98723.51
2017-07-22T04:38:40.142Z,98725.45
2017-07-22T04:41:07.670Z,98728.94
2017-07-22T04:43:35.225Z,98725.81
2017-07-22T04:46:02.753Z,98732.78
2017-07-22T04:48:30.381Z,98734.77
2017-07-22T04:50:57.898Z,98741.95
2017-07-22T04:53:25.460Z,98735.72
2017-07-22T04:55:52.987Z,98735.42
2017-07-22T04:58:20.517Z,98740.53
2017-07-22T05:00:48.180Z,98748.45
2017-07-22T05:03:15.718Z,98745.22
2017-07-22T05:05:43.289Z,98752.67
2017-07-22T05:08:10.805Z,98751.72
2017-07-22T05:10:38.352Z,98751.56
2017-07-22T05:13:05.938Z,98753.30
2017-07-22T05:15:33.485Z,98753.48
2017-07-22T05:18:01.006Z,98750.77
2017-07-22T05:20:28.623Z,98756.02
2017-07-22T05:22:56.270Z,98761.22
2017-07-22T05:25:23.822Z,98758.73
2017-07-22T05:27:51.352Z,98756.67
2017-07-22T05:30:18.898Z,98761.07
2017-07-22T05:32:46.418Z,98757.77
2017-07-22T05:35:13.963Z,98764.89
2017-07-22T05:37:41.504Z,98761.14
2017-07-22T05:40:09.073Z,98758.98
2017-07-22T05:42:36.598Z,98762.36
2017-07-22T05:45:04.276Z,98759.53
2017-07-22T05:47:31.787Z,98761.77
2017-07-22T05:49:59.304Z,98773.36
2017-07-22T05:52:26.862Z,98771.27
2017-07-22T05:54:54.390Z,98770.98
2017-07-22T05:57:21.959Z,98778.17
2017-07-22T05:59:49.476Z,98782.64
2017-07-22T06:02:17.030Z,98782.47
2017-07-22T06:04:44.549Z,98787.75
2017-07-22T06:07:12.108Z,98794.31
2017-07-22T06:09:39.686Z,98787.52
2017-07-22T06:12:07.234Z,98797.03
2017-07-22T06:14:34.757Z,98797.80
2017-07-22T06:17:02.302Z,98802.83
2017-07-22T06:19:29.824Z,98808.33
2017-07-22T06:21:57.370Z,98811.30
2017-07-22T06:24:24.884Z,98805.22
2017-07-22T06:26:52.580Z,98799.64
2017-07-22T06:29:20.143Z,98799.64
2017-07-22T06:31:47.702Z,98796.45
2017-07-22T06:34:15.233Z,98800.37
2017-07-22T06:36:42.753Z,98800.55
2017-07-22T06:39:10.321Z,98807.23
2017-07-22T06:41:37.843Z,98805.58
2017-07-22T06:44:05.399Z,98808.77
2017-07-22T06:46:32.917Z,98813.73
2017-07-22T06:49:00.466Z,98816.38
2017-07-22T06:51:28.003Z,98812.37
2017-07-22T06:53:55.637Z,98813.98
2017-07-22T06:56:23.159Z,98818.20
2017-07-22T06:58:50.708Z,98816.92
2017-07-22T07:01:18.315Z,98820.33
2017-07-22T07:03:45.868Z,98821.06
2017-07-22T07:06:13.393Z,98828.45
2017-07-22T07:08:40.996Z,98832.70
2017-07-22T07:11:08.509Z,98838.36
2017-07-22T07:13:36.062Z,98844.92
2017-07-22T07:16:03.676Z,98845.03
2017-07-22T07:18:31.243Z,98852.03
2017-07-22T07:20:58.760Z,98848.14
2017-07-22T07:23:26.272Z,98846.39
2017-07-22T07:25:53.880Z,98845.29
2017-07-22T07:28:21.396Z,98846.66
2017-07-22T07:30:48.938Z,98838.06
2017-07-22T07:33:16.552Z,98840.70
2017-07-22T07:35:44.101Z,98838.14
2017-07-22T07:38:11.623Z,98840.12
2017-07-22T07:40:39.255Z,98837.88
2017-07-22T07:43:06.815Z,98841.80
2017-07-22T07:45:34.381Z,98839.75
2017-07-22T07:48:01.897Z,98840.23
2017-07-22T07:50:29.449Z,98844.94
2017-07-22T07:52:56.969Z,98844.08
2017-07-22T07:55:24.515Z,98849.92
2017-07-22T07:57:52.034Z,98851.09
2017-07-22T08:00:19.580Z,98848.23
2017-07-22T08:02:47.099Z,98849.19
2017-07-22T08:05:14.648Z,98854.40
2017-07-22T08:07:42.156Z,98853.45
2017-07-22T08:10:09.673Z,98855.17
2017-07-22T08:12:37.216Z,98860.72
2017-07-22T08:15:04.731Z,98857.37
2017-07-22T08:17:32.275Z,98852.75
2017-07-22T08:19:59.794Z,98857.63
2017-07-22T08:22:27.350Z,98859.62
2017-07-22T08:24:54.871Z,98857.08
2017-07-22T08:27:22.425Z,98856.50
2017-07-22T08:29:49.939Z,98861.89
2017-07-22T08:32:17.487Z,98856.68
2017-07-22T08:34:45.006Z,98856.94
2017-07-22T08:37:12.550Z,98854.37
2017-07-22T08:39:40.067Z,98863.17
2017-07-22T08:42:07.615Z,98861.64
2017-07-22T08:44:35.133Z,98873.16
2017-07-22T08:47:02.692Z,98865.67
2017-07-22T08:49:30.208Z,98862.77
2017-07-22T08:51:57.761Z,98858.98
2017-07-22T08:54:25.272Z,98858.84
2017-07-22T08:56:52.821Z,98860.27
2017-07-22T08:59:20.343Z,98864.42
2017-07-22T09:01:47.866Z,98861.70
2017-07-22T09:04:15.416Z,98861.25
2017-07-22T09:06:42.930Z,98862.21
2017-07-22T09:09:10.487Z,98860.67
2017-07-22T09:11:38.008Z,98859.09
2017-07-22T09:14:05.572Z,98858.13
2017-07-22T09:16:33.087Z,98857.03
2017-07-22T09:19:00.642Z,98856.48
2017-07-22T09:21:29.123Z,98862.14
2017-07-22T09:23:56.778Z,98859.59
2017-07-22T09:26:24.306Z,98863.27
2017-07-22T09:28:51.854Z,98863.92
2017-07-22T09:31:19.372Z,98859.45
2017-07-22T09:33:47.055Z,98855.95
2017-07-22T09:36:14.569Z,98862.67
2017-07-22T09:38:42.116Z,98859.47
2017-07-22T09:41:09.640Z,98862.92
2017-07-22T09:43:37.198Z,98859.17
2017-07-22T09:46:04.724Z,98860.98
2017-07-22T09:48:32.257Z,98861.46
2017-07-22T09:50:59.928Z,98862.52
2017-07-22T09:53:27.491Z,98861.64
2017-07-22T09:55:55.033Z,98860.34
2017-07-22T09:58:22.587Z,98859.80
2017-07-22T10:00:50.132Z,98854.21
2017-07-22T10:03:17.657Z,98854.28
2017-07-22T10:05:45.205Z,98852.77
2017-07-22T10:08:12.721Z,98852.07
2017-07-22T10:10:40.267Z,98855.97
2017-07-22T10:13:07.786Z,98847.52
2017-07-22T10:15:35.336Z,98849.83
2017-07-22T10:18:02.990Z,98854.71
2017-07-22T10:20:30.536Z,98847.73
2017-07-22T10:22:58.133Z,98848.39
2017-07-22T10:25:25.777Z,98848.39
2017-07-22T10:27:53.306Z,98850.00
2017-07-22T10:30:20.849Z,98848.86
2017-07-22T10:32:48.386Z,98845.03
2017-07-22T10:35:15.949Z,98845.03
2017-07-22T10:37:43.541Z,98843.93
2017-07-22T10:40:11.066Z,98840.07
2017-07-22T10:42:38.606Z,98841.83
2017-07-22T10:45:06.166Z,98840.88
2017-07-22T10:47:33.714Z,98838.16
2017-07-22T10:50:01.235Z,98840.73
2017-07-22T10:52:28.885Z,98838.23
2017-07-22T10:54:56.474Z,98843.12
2017-07-22T10:57:24.014Z,98836.16
2017-07-22T10:59:51.533Z,98835.77
2017-07-22T11:02:19.076Z,98838.73
2017-07-22T11:04:46.626Z,98839.69
2017-07-22T11:07:14.187Z,98837.78
2017-07-22T11:09:41.702Z,98827.52
2017-07-22T11:12:09.390Z,98826.56
2017-07-22T11:14:36.921Z,98833.22
2017-07-22T11:17:04.482Z,98838.66
2017-07-22T11:19:32.040Z,98839.86
2017-07-22T11:21:59.622Z,98834.24
2017-07-22T11:24:27.137Z,98825.13
2017-07-22T11:26:54.691Z,98829.45
2017-07-22T11:29:22.293Z,98832.18
2017-07-22T11:31:49.827Z,98836.11
2017-07-22T11:34:17.465Z,98835.22
2017-07-22T11:36:46.539Z,98840.98
2017-07-22T11:39:14.209Z,98835.16
2017-07-22T11:41:42.949Z,98827.57
2017-07-22T11:44:10.778Z,98826.94
2017-07-22T11:46:39.111Z,98834.30
2017-07-22T11:49:08.485Z,98838.16
2017-07-22T11:51:36.960Z,98838.77
2017-07-22T11:54:05.041Z,98841.65
2017-07-22T11:56:33.168Z,98843.19
2017-07-22T11:59:01.909Z,98844.55
2017-07-22T12:01:30.239Z,98828.14
2017-07-22T12:03:59.026Z,98828.06
2017-07-22T12:06:27.623Z,98836.06
2017-07-22T12:08:56.193Z,98837.25
2017-07-22T12:11:24.310Z,98833.02
2017-07-22T12:13:52.602Z,98839.89
2017-07-22T12:16:21.080Z,98838.44
2017-07-22T12:18:48.693Z,98836.70
2017-07-22T12:21:16.225Z,98833.50
2017-07-22T12:23:43.789Z,98834.52
2017-07-22T12:26:11.309Z,98820.36
2017-07-22T12:28:38.921Z,98819.25
2017-07-22T12:31:06.599Z,98813.48
2017-07-22T12:33:34.115Z,98811.16
2017-07-22T12:36:02.866Z,98807.30
2017-07-22T12:38:30.899Z,98808.17
2017-07-22T12:40:58.978Z,98812.17
2017-07-22T12:43:27.510Z,98798.10
2017-07-22T12:45:55.701Z,98796.48
2017-07-22T12:48:23.635Z,98782.63
2017-07-22T12:50:52.427Z,98777.53
2017-07-22T12:53:20.090Z,98783.52
2017-07-22T12:55:48.640Z,98775.52
2017-07-22T12:58:16.397Z,98776.13
2017-07-22T13:00:45.179Z,98777.98
2017-07-22T13:03:13.489Z,98776.40
2017-07-22T13:05:41.572Z,98789.52
2017-07-22T13:08:09.877Z,98793.34
2017-07-22T13:10:38.532Z,98788.55
2017-07-22T13:13:06.709Z,98782.37
2017-07-22T13:15:34.642Z,98786.55
2017-07-22T13:18:02.627Z,98780.61
2017-07-22T13:20:30.274Z,98777.23
2017-07-22T13:22:58.926Z,98769.23
2017-07-22T13:25:27.853Z,98768.27
2017-07-22T13:27:55.527Z,98761.46
2017-07-22T13:30:23.042Z,98764.28
2017-07-22T13:32:50.599Z,98765.55
2017-07-22T13:35:18.120Z,98763.45
2017-07-22T13:37:45.790Z,98771.30
2017-07-22T13:40:13.306Z,98779.56
2017-07-22T13:42:40.852Z,98782.28
2017-07-22T13:45:08.394Z,98793.73
2017-07-22T13:47:35.949Z,98811.43
2017-07-22T13:50:03.469Z,98804.63
2017-07-22T13:52:31.122Z,98787.73
2017-07-22T13:54:58.713Z,98781.88
2017-07-22T13:57:26.262Z,98784.20
2017-07-22T13:59:53.830Z,98780.77
2017-07-22T14:02:21.387Z,98794.60
2017-07-22T14:04:48.899Z,98790.52
2017-07-22T14:07:16.413Z,98792.78
2017-07-22T14:09:43.957Z,98796.00
2017-07-22T14:12:11.473Z,98783.00
2017-07-22T14:14:39.030Z,98781.15
2017-07-22T14:17:06.539Z,98775.30
2017-07-22T14:19:34.187Z,98772.27
2017-07-22T14:22:01.698Z,98767.84
2017-07-22T14:24:29.249Z,98768.56
2017-07-22T14:26:56.771Z,98763.77
2017-07-22T14:29:24.324Z,98763.86
2017-07-22T14:31:51.840Z,98759.37
2017-07-22T14:34:19.381Z,98759.98
2017-07-22T14:36:46.901Z,98763.70
2017-07-22T14:39:14.447Z,98763.52
2017-07-22T14:41:41.974Z,98771.28
2017-07-22T14:44:09.524Z,98772.89
2017-07-22T14:46:37.080Z,98761.20
2017-07-22T14:49:04.654Z,98757.41
2017-07-22T14:51:32.168Z,98758.37
2017-07-22T14:54:00.028Z,98758.56
2017-07-22T14:56:27.582Z,98755.50
2017-07-22T14:58:55.098Z,98746.52
2017-07-22T15:01:22.697Z,98748.75
2017-07-22T15:03:50.221Z,98750.42
2017-07-22T15:06:17.771Z,98747.76
2017-07-22T15:08:45.298Z,98742.31
2017-07-22T15:11:13.144Z,98741.19
2017-07-22T15:13:40.701Z,98746.30
2017-07-22T15:16:08.349Z,98748.63
2017-07-22T15:18:37.316Z,98745.34
2017-07-22T15:21:05.226Z,98739.34
2017-07-22T15:23:32.871Z,98736.30
2017-07-22T15:26:01.055Z,98737.88
2017-07-22T15:28:29.236Z,98732.89
2017-07-22T15:30:57.616Z,98730.35
2017-07-22T15:33:25.501Z,98731.46
2017-07-22T15:35:53.144Z,98730.81
2017-07-22T15:38:21.024Z,98733.84
2017-07-22T15:40:49.037Z,98731.98
2017-07-22T15:43:17.360Z,98726.53
2017-07-22T15:45:45.841Z,98733.84
2017-07-22T15:48:13.707Z,98728.05
2017-07-22T15:50:41.860Z,98728.69
2017-07-22T15:53:09.546Z,98721.23
2017-07-22T15:55:37.383Z,98727.70
2017-07-22T15:58:06.342Z,98729.16
2017-07-22T16:00:33.948Z,98727.55
2017-07-22T16:03:02.921Z,98728.00
2017-07-22T16:05:31.435Z,98723.36
2017-07-22T16:07:59.121Z,98722.30
2017-07-22T16:10:27.079Z,98725.37
2017-07-22T16:12:54.949Z,98726.63
2017-07-22T16:15:22.479Z,98730.16
2017-07-22T16:17:50.066Z,98728.70
2017-07-22T16:20:17.585Z,98733.09
2017-07-22T16:22:45.137Z,98723.51
2017-07-22T16:25:12.647Z,98731.94
2017-07-22T16:27:40.171Z,98725.28
2017-07-22T16:30:07.722Z,98720.73
2017-07-22T16:32:35.235Z,98722.34
2017-07-22T16:35:02.784Z,98723.92
2017-07-22T16:37:30.301Z,98717.45
2017-07-22T16:39:57.850Z,98720.98
2017-07-22T16:42:25.374Z,98720.98
2017-07-22T16:44:52.931Z,98716.25
2017-07-22T16:47:20.453Z,98714.16
2017-07-22T16:49:48.046Z,98709.64
2017-07-22T16:52:15.569Z,98703.31
2017-07-22T16:54:44.148Z,98708.11
2017-07-22T16:57:12.254Z,98702.95
2017-07-22T16:59:39.838Z,98700.45
2017-07-22T17:02:07.355Z,98688.23
2017-07-22T17:04:34.933Z,98684.86
2017-07-22T17:07:02.454Z,98692.81
2017-07-22T17:09:30.005Z,98687.37
2017-07-22T17:11:57.529Z,98679.19
2017-07-22T17:14:25.092Z,98681.92
2017-07-22T17:16:52.609Z,98678.95
2017-07-22T17:19:20.129Z,98673.50
2017-07-22T17:21:47.674Z,98670.61
2017-07-22T17:24:15.183Z,98670.61
2017-07-22T17:26:42.746Z,98664.36
2017-07-22T17:29:10.258Z,98656.59
2017-07-22T17:31:37.823Z,98661.23
2017-07-22T17:34:05.390Z,98662.03
2017-07-22T17:36:32.915Z,98661.63
2017-07-22T17:39:00.480Z,98658.11
2017-07-22T17:41:27.998Z,98649.93
2017-07-22T17:43:55.555Z,98647.20
2017-07-22T17:46:23.376Z,98650.89
2017-07-22T17:48:50.932Z,98655.78
2017-07-22T17:51:18.451Z,98653.06
2017-07-22T17:53:45.998Z,98655.78
2017-07-22T17:56:13.512Z,98660.83
2017-07-22T17:58:41.055Z,98667.64
2017-07-22T18:01:08.583Z,98668.61
2017-07-22T18:03:36.140Z,98676.87
2017-07-22T18:06:03.657Z,98678.79
2017-07-22T18:08:31.209Z,98681.33
2017-07-22T18:10:58.722Z,98671.79
2017-07-22T18:13:26.243Z,98671.79
2017-07-22T18:15:53.796Z,98676.28
2017-07-22T18:18:21.318Z,98673.95
2017-07-22T18:20:48.859Z,98679.41
2017-07-22T18:23:16.377Z,98677.33
2017-07-22T18:25:43.928Z,98677.33
2017-07-22T18:28:11.440Z,98675.96
2017-07-22T18:30:38.995Z,98673.80
2017-07-22T18:33:06.507Z,98676.92
2017-07-22T18:35:34.045Z,98686.46
2017-07-22T18:38:01.561Z,98680.86
2017-07-22T18:40:29.105Z,98689.43
2017-07-22T18:42:56.633Z,98678.12
2017-07-22T18:45:24.195Z,98682.62
2017-07-22T18:47:51.709Z,98678.53
2017-07-22T18:50:19.262Z,98680.45
2017-07-22T18:52:46.781Z,98686.52
2017-07-22T18:55:14.329Z,98681.63
2017-07-22T18:57:41.878Z,98682.83
2017-07-22T19:00:09.394Z,98680.27
2017-07-22T19:02:36.951Z,98681.07
2017-07-22T19:05:04.464Z,98682.83
2017-07-22T19:07:32.025Z,98684.59
2017-07-22T19:09:59.546Z,98685.56
2017-07-22T19:12:27.085Z,98687.48
2017-07-22T19:14:54.602Z,98683.80
2017-07-22T19:17:22.187Z,98686.61
2017-07-22T19:19:49.702Z,98695.91
2017-07-22T19:22:17.251Z,98699.10
2017-07-22T19:24:44.816Z,98688.34
2017-07-22T19:27:12.382Z,98685.33
2017-07-22T19:29:39.910Z,98684.06
2017-07-22T19:32:07.424Z,98679.68
2017-07-22T19:34:35.238Z,98676.49
2017-07-22T19:37:02.748Z,98681.77
2017-07-22T19:39:30.296Z,98676.88
2017-07-22T19:41:57.895Z,98659.17
2017-07-22T19:44:25.450Z,98663.45
2017-07-22T19:46:52.968Z,98659.73
2017-07-22T19:49:20.642Z,98646.19
2017-07-22T19:51:48.186Z,98636.97
2017-07-22T19:54:15.738Z,98636.37
2017-07-22T19:56:43.269Z,98637.73
2017-07-22T19:59:10.813Z,98653.78
2017-07-22T20:01:38.334Z,98644.78
2017-07-22T20:04:05.911Z,98645.39
2017-07-22T20:06:33.453Z,98649.27
2017-07-22T20:09:01.007Z,98650.53
2017-07-22T20:11:28.543Z,98651.33
2017-07-22T20:13:56.057Z,98637.41
2017-07-22T20:16:23.618Z,98639.38
2017-07-22T20:18:51.130Z,98644.28
2017-07-22T20:21:18.686Z,98650.09
2017-07-22T20:23:46.213Z,98656.93
2017-07-22T20:26:13.839Z,98648.97
2017-07-22T20:28:41.502Z,98649.98
2017-07-22T20:31:09.053Z,98638.63
2017-07-22T20:33:36.584Z,98633.18
2017-07-22T20:36:04.137Z,98638.33
2017-07-22T20:38:31.741Z,98643.64
2017-07-22T20:40:59.299Z,98647.16
2017-07-22T20:43:26.827Z,98647.47
2017-07-22T20:45:54.377Z,98649.12
2017-07-22T20:48:21.905Z,98655.78
2017-07-22T20:50:49.447Z,98656.64
2017-07-22T20:53:16.976Z,98656.86
2017-07-22T20:55:44.528Z,98654.08
2017-07-22T20:58:12.045Z,98655.89
2017-07-22T21:00:39.564Z,98655.49
2017-07-22T21:03:07.117Z,98653.42
2017-07-22T21:05:34.636Z,98657.26
2017-07-22T21:08:02.203Z,98653.66
2017-07-22T21:10:29.722Z,98659.58
2017-07-22T21:12:57.278Z,98668.75
2017-07-22T21:15:24.803Z,98671.28
2017-07-22T21:17:52.355Z,98669.20
2017-07-22T21:20:19.875Z,98677.30
2017-07-22T21:22:47.435Z,98679.65
2017-07-22T21:25:15.052Z,98688.24
2017-07-22T21:27:42.852Z,98690.55
